createdAt,value
2023-05-23T00:01:46.780Z,9.10
2023-05-23T00:04:17.339Z,9.08
2023-05-23T00:06:50.452Z,9.05
2023-05-23T00:09:17.414Z,9.04
2023-05-23T00:11:45.461Z,9.01
2023-05-23T00:14:14.239Z,8.99
2023-05-23T00:16:45.403Z,8.97
2023-05-23T00:19:15.003Z,8.96
2023-05-23T00:21:51.083Z,8.94
2023-05-23T00:24:19.016Z,8.91
2023-05-23T00:26:46.569Z,8.92
2023-05-23T00:29:16.333Z,8.92
2023-05-23T00:31:46.686Z,8.90
2023-05-23T00:34:20.668Z,8.87
2023-05-23T00:36:50.575Z,8.84
2023-05-23T00:39:20.356Z,8.81
2023-05-23T00:41:52.268Z,8.79
2023-05-23T00:44:20.693Z,8.77
2023-05-23T00:46:58.088Z,8.74
2023-05-23T00:51:54.849Z,8.70
2023-05-23T00:54:27.390Z,8.65
2023-05-23T00:56:55.057Z,8.60
2023-05-23T00:59:24.534Z,8.56
2023-05-23T01:01:52.990Z,8.54
2023-05-23T01:04:20.419Z,8.53
2023-05-23T01:06:49.198Z,8.53
2023-05-23T01:09:17.419Z,8.51
2023-05-23T01:11:57.082Z,8.47
2023-05-23T01:14:38.092Z,8.44
2023-05-23T01:17:13.793Z,8.40
2023-05-23T01:19:49.499Z,8.37
2023-05-23T01:22:25.591Z,8.33
2023-05-23T01:25:21.962Z,8.31
2023-05-23T01:27:53.061Z,8.28
2023-05-23T01:30:21.459Z,8.26
2023-05-23T01:32:50.815Z,8.25
2023-05-23T01:35:27.787Z,8.23
2023-05-23T01:37:57.166Z,8.21
2023-05-23T01:40:25.152Z,8.19
2023-05-23T01:42:53.645Z,8.17
2023-05-23T01:45:21.658Z,8.15
2023-05-23T01:47:51.154Z,8.12
2023-05-23T01:50:18.680Z,8.12
2023-05-23T01:52:47.095Z,8.13
2023-05-23T01:55:18.623Z,8.11
2023-05-23T01:57:49.721Z,8.10
2023-05-23T02:00:16.849Z,8.08
2023-05-23T02:02:46.438Z,8.06
2023-05-23T02:05:13.309Z,8.04
2023-05-23T02:07:39.883Z,8.04
2023-05-23T02:10:08.801Z,8.02
2023-05-23T02:12:35.953Z,8.01
2023-05-23T02:15:02.527Z,8.00
2023-05-23T02:17:38.807Z,7.98
2023-05-23T02:20:07.557Z,7.96
2023-05-23T02:22:34.125Z,7.96
2023-05-23T02:25:00.672Z,7.96
2023-05-23T02:27:28.600Z,7.95
2023-05-23T02:29:55.148Z,7.93
2023-05-23T02:32:21.687Z,7.91
2023-05-23T02:34:50.884Z,7.91
2023-05-23T02:37:18.015Z,7.90
2023-05-23T02:39:44.638Z,7.88
2023-05-23T02:42:11.163Z,7.87
2023-05-23T02:44:37.844Z,7.86
2023-05-23T02:47:04.662Z,7.85
2023-05-23T02:49:33.162Z,7.85
2023-05-23T02:52:00.057Z,7.86
2023-05-23T02:54:26.608Z,7.89
2023-05-23T02:56:54.790Z,7.95
2023-05-23T02:59:23.081Z,7.99
2023-05-23T03:01:50.060Z,8.03
2023-05-23T03:04:16.754Z,8.05
2023-05-23T03:06:44.409Z,8.11
2023-05-23T03:09:11.122Z,8.17
2023-05-23T03:11:37.753Z,8.21
2023-05-23T03:14:04.370Z,8.25
2023-05-23T03:16:31.114Z,8.29
2023-05-23T03:18:57.768Z,8.32
2023-05-23T03:21:24.949Z,8.37
2023-05-23T03:23:51.555Z,8.44
2023-05-23T03:26:18.316Z,8.50
2023-05-23T03:28:44.972Z,8.57
2023-05-23T03:31:11.612Z,8.63
2023-05-23T03:33:40.363Z,8.70
2023-05-23T03:36:07.433Z,8.79
2023-05-23T03:38:34.065Z,8.89
2023-05-23T03:41:00.802Z,8.99
2023-05-23T03:43:27.440Z,9.08
2023-05-23T03:45:54.103Z,9.19
2023-05-23T03:48:20.841Z,9.29
2023-05-23T03:50:47.786Z,9.38
2023-05-23T03:53:14.535Z,9.48
2023-05-23T03:55:41.391Z,9.59
2023-05-23T03:58:08.291Z,9.71
2023-05-23T04:00:34.904Z,9.84
2023-05-23T04:03:04.926Z,9.99
2023-05-23T04:05:31.940Z,10.15
2023-05-23T04:08:01.760Z,10.30
2023-05-23T04:10:28.920Z,10.46
2023-05-23T04:12:57.100Z,10.62
2023-05-23T04:15:23.770Z,10.77
2023-05-23T04:17:54.656Z,10.92
2023-05-23T04:20:21.351Z,11.07
2023-05-23T04:22:47.985Z,11.22
2023-05-23T04:25:14.644Z,11.38
2023-05-23T04:27:48.248Z,11.54
2023-05-23T04:30:17.844Z,11.71
2023-05-23T04:32:44.810Z,11.86
2023-05-23T04:35:14.289Z,12.01
2023-05-23T04:37:42.543Z,12.16
2023-05-23T04:40:09.598Z,12.32
2023-05-23T04:42:57.265Z,12.49
2023-05-23T04:45:32.928Z,12.67
2023-05-23T04:48:03.540Z,12.83
2023-05-23T04:50:40.667Z,12.99
2023-05-23T04:53:07.482Z,13.15
2023-05-23T04:55:34.872Z,13.30
2023-05-23T04:58:03.414Z,13.44
2023-05-23T05:00:30.363Z,13.57
2023-05-23T05:02:57.108Z,13.70
2023-05-23T05:05:27.586Z,13.85
2023-05-23T05:07:55.574Z,13.99
2023-05-23T05:10:22.158Z,14.15
2023-05-23T05:12:51.737Z,14.31
2023-05-23T05:15:19.485Z,14.50
2023-05-23T05:17:50.095Z,14.66
2023-05-23T05:20:18.980Z,14.80
2023-05-23T05:22:46.043Z,14.94
2023-05-23T05:25:13.020Z,15.09
2023-05-23T05:27:40.436Z,15.25
2023-05-23T05:30:10.407Z,15.39
2023-05-23T05:32:58.237Z,15.53
2023-05-23T05:35:24.984Z,15.66
2023-05-23T05:37:51.720Z,15.78
2023-05-23T05:40:18.932Z,15.92
2023-05-23T05:42:45.495Z,16.06
2023-05-23T05:45:12.131Z,16.18
2023-05-23T05:47:40.213Z,16.31
2023-05-23T05:50:09.478Z,16.43
2023-05-23T05:52:39.659Z,16.55
2023-05-23T05:55:13.641Z,16.67
2023-05-23T05:57:44.902Z,16.81
2023-05-23T06:00:19.050Z,16.91
2023-05-23T06:02:51.714Z,16.98
2023-05-23T06:05:26.743Z,17.10
2023-05-23T06:07:53.510Z,17.23
2023-05-23T06:10:20.990Z,17.36
2023-05-23T06:12:48.032Z,17.48
2023-05-23T06:15:16.009Z,17.61
2023-05-23T06:17:45.336Z,17.74
2023-05-23T06:20:12.451Z,17.86
2023-05-23T06:22:40.853Z,17.99
2023-05-23T06:25:07.961Z,18.11
2023-05-23T06:27:34.955Z,18.23
2023-05-23T06:30:03.782Z,18.34
2023-05-23T06:32:30.490Z,18.44
2023-05-23T06:34:57.885Z,18.55
2023-05-23T06:37:25.034Z,18.63
2023-05-23T06:39:51.634Z,18.69
2023-05-23T06:42:18.624Z,18.79
2023-05-23T06:45:17.550Z,18.93
2023-05-23T06:47:45.662Z,19.01
2023-05-23T06:50:12.663Z,19.13
2023-05-23T06:52:39.321Z,19.19
2023-05-23T06:55:06.687Z,19.26
2023-05-23T06:57:33.297Z,19.42
2023-05-23T06:59:59.954Z,19.80
2023-05-23T07:02:26.705Z,20.36
2023-05-23T07:04:54.024Z,21.06
2023-05-23T07:07:38.463Z,21.88
2023-05-23T07:10:06.243Z,22.67
2023-05-23T07:12:34.879Z,23.27
2023-05-23T07:15:02.409Z,23.82
2023-05-23T07:17:32.723Z,24.37
2023-05-23T07:19:59.689Z,24.89
2023-05-23T07:22:27.043Z,25.22
2023-05-23T07:24:53.886Z,25.53
2023-05-23T07:27:22.422Z,26.17
2023-05-23T07:29:49.060Z,26.69
2023-05-23T07:32:16.000Z,27.11
2023-05-23T07:34:43.429Z,27.31
2023-05-23T07:37:10.243Z,27.73
2023-05-23T07:39:41.886Z,28.16
2023-05-23T07:42:08.797Z,28.49
2023-05-23T07:44:35.790Z,29.02
2023-05-23T07:47:02.835Z,29.70
2023-05-23T07:49:29.846Z,30.44
2023-05-23T07:51:56.548Z,31.07
2023-05-23T07:54:23.286Z,31.52
2023-05-23T07:56:53.987Z,32.09
2023-05-23T07:59:20.736Z,31.93
2023-05-23T08:01:50.446Z,31.34
2023-05-23T08:04:19.061Z,31.13
2023-05-23T08:07:04.434Z,31.27
2023-05-23T08:09:45.674Z,31.14
2023-05-23T08:12:15.439Z,30.75
2023-05-23T08:14:51.738Z,30.37
2023-05-23T08:17:23.977Z,30.33
2023-05-23T08:19:51.182Z,30.24
2023-05-23T08:22:18.413Z,30.50
2023-05-23T08:24:44.999Z,30.48
2023-05-23T08:27:11.734Z,30.53
2023-05-23T08:29:38.723Z,30.84
2023-05-23T08:32:05.949Z,31.39
2023-05-23T08:34:34.152Z,31.41
2023-05-23T08:37:01.279Z,32.01
2023-05-23T08:39:28.218Z,32.86
2023-05-23T08:42:04.140Z,33.13
2023-05-23T08:44:31.038Z,32.49
2023-05-23T08:47:05.491Z,31.98
2023-05-23T08:49:54.750Z,32.31
2023-05-23T08:52:25.256Z,32.54
2023-05-23T08:54:53.270Z,32.51
2023-05-23T08:57:19.925Z,32.47
2023-05-23T08:59:51.929Z,32.17
2023-05-23T09:02:19.764Z,32.04
2023-05-23T09:04:47.584Z,32.08
2023-05-23T09:07:19.730Z,32.30
2023-05-23T09:09:49.374Z,32.13
2023-05-23T09:12:16.586Z,30.96
2023-05-23T09:14:46.082Z,30.43
2023-05-23T09:17:16.833Z,30.64
2023-05-23T09:19:43.572Z,30.38
2023-05-23T09:22:24.128Z,29.52
2023-05-23T09:24:58.040Z,29.93
2023-05-23T09:27:24.987Z,30.53
2023-05-23T09:29:51.912Z,31.44
2023-05-23T09:32:20.428Z,31.94
2023-05-23T09:35:06.621Z,32.19
2023-05-23T09:37:39.365Z,32.84
2023-05-23T09:40:14.430Z,33.29
2023-05-23T09:42:47.113Z,33.01
2023-05-23T09:45:15.170Z,32.24
2023-05-23T09:47:52.990Z,32.46
2023-05-23T09:50:21.092Z,33.09
2023-05-23T09:52:48.316Z,33.76
2023-05-23T09:55:15.661Z,33.87
2023-05-23T09:57:43.703Z,33.07
2023-05-23T10:00:15.192Z,32.59
2023-05-23T10:02:54.027Z,32.59
2023-05-23T10:05:31.942Z,32.51
2023-05-23T10:08:02.603Z,32.22
2023-05-23T10:10:33.955Z,31.77
2023-05-23T10:13:05.143Z,31.46
2023-05-23T10:15:39.135Z,31.62
2023-05-23T10:18:18.345Z,31.68
2023-05-23T10:20:49.179Z,31.61
2023-05-23T10:23:16.724Z,31.46
2023-05-23T10:25:44.589Z,31.01
2023-05-23T10:28:13.734Z,30.34
2023-05-23T10:30:41.268Z,30.51
2023-05-23T10:33:09.690Z,30.96
2023-05-23T10:35:58.454Z,31.17
2023-05-23T10:38:51.527Z,31.11
2023-05-23T10:41:34.203Z,31.01
2023-05-23T10:44:28.694Z,31.25
2023-05-23T10:47:02.296Z,31.12
2023-05-23T10:49:47.044Z,31.30
2023-05-23T10:52:17.400Z,31.88
2023-05-23T10:54:45.160Z,32.40
2023-05-23T10:57:17.577Z,31.92
2023-05-23T10:59:47.088Z,31.68
2023-05-23T11:02:16.210Z,31.36
2023-05-23T11:04:43.393Z,31.36
2023-05-23T11:07:31.331Z,31.35
2023-05-23T11:10:07.396Z,32.02
2023-05-23T11:12:39.994Z,32.53
2023-05-23T11:15:18.579Z,32.89
2023-05-23T11:17:57.513Z,32.82
2023-05-23T11:20:27.551Z,32.04
2023-05-23T11:22:59.238Z,31.63
2023-05-23T11:25:48.961Z,31.66
2023-05-23T11:28:17.377Z,31.43
2023-05-23T11:30:44.611Z,31.17
2023-05-23T11:33:17.035Z,31.30
2023-05-23T11:35:49.733Z,31.76
2023-05-23T11:38:17.067Z,31.90
2023-05-23T11:40:47.562Z,32.06
2023-05-23T11:43:16.715Z,32.48
2023-05-23T11:45:44.154Z,32.49
2023-05-23T11:48:17.693Z,32.39
2023-05-23T11:50:53.248Z,32.79
2023-05-23T11:53:25.236Z,32.77
2023-05-23T11:56:02.387Z,32.57
2023-05-23T11:58:33.530Z,32.52
2023-05-23T12:01:09.368Z,31.94
2023-05-23T12:03:47.281Z,30.95
2023-05-23T12:06:22.368Z,30.09
2023-05-23T12:08:49.133Z,29.34
2023-05-23T12:11:15.922Z,28.95
2023-05-23T12:13:43.153Z,28.86
2023-05-23T12:16:11.313Z,28.87
2023-05-23T12:18:38.182Z,29.12
2023-05-23T12:21:08.415Z,29.29
2023-05-23T12:23:36.573Z,29.41
2023-05-23T12:26:07.450Z,29.35
2023-05-23T12:28:39.721Z,29.47
2023-05-23T12:31:25.689Z,29.62
2023-05-23T12:33:53.431Z,29.77
2023-05-23T12:36:32.185Z,29.91
2023-05-23T12:39:05.963Z,29.96
2023-05-23T12:41:33.629Z,30.01
2023-05-23T12:44:00.859Z,29.92
2023-05-23T12:46:28.205Z,30.10
2023-05-23T12:48:55.374Z,30.17
2023-05-23T12:51:22.453Z,29.67
2023-05-23T12:53:49.392Z,29.49
2023-05-23T12:56:16.187Z,29.44
2023-05-23T12:58:43.614Z,29.19
2023-05-23T13:01:11.324Z,29.34
2023-05-23T13:03:38.085Z,29.54
2023-05-23T13:06:05.182Z,29.39
2023-05-23T13:08:32.130Z,29.33
2023-05-23T13:10:58.774Z,29.50
2023-05-23T13:13:26.776Z,29.54
2023-05-23T13:15:53.381Z,29.43
2023-05-23T13:18:20.144Z,29.23
2023-05-23T13:20:47.009Z,28.99
2023-05-23T13:23:14.278Z,28.74
2023-05-23T13:25:41.475Z,28.74
2023-05-23T13:28:08.505Z,28.91
2023-05-23T13:30:35.316Z,28.79
2023-05-23T13:33:02.107Z,28.64
2023-05-23T13:35:28.797Z,28.37
2023-05-23T13:37:55.582Z,28.41
2023-05-23T13:40:22.793Z,28.62
2023-05-23T13:42:51.346Z,28.51
2023-05-23T13:45:22.643Z,28.42
2023-05-23T13:47:49.715Z,28.27
2023-05-23T13:50:17.286Z,28.06
2023-05-23T13:52:46.473Z,27.92
2023-05-23T13:55:15.182Z,27.83
2023-05-23T13:57:41.765Z,27.65
2023-05-23T14:00:09.136Z,27.60
2023-05-23T14:02:35.920Z,27.51
2023-05-23T14:05:03.450Z,27.41
2023-05-23T14:07:30.154Z,27.14
2023-05-23T14:09:57.605Z,26.83
2023-05-23T14:12:24.272Z,26.40
2023-05-23T14:14:50.981Z,26.19
2023-05-23T14:17:18.318Z,26.08
2023-05-23T14:19:45.702Z,25.88
2023-05-23T14:22:12.557Z,25.80
2023-05-23T14:24:39.262Z,25.79
2023-05-23T14:27:08.654Z,25.77
2023-05-23T14:29:37.003Z,25.57
2023-05-23T14:32:06.905Z,25.33
2023-05-23T14:34:33.629Z,25.16
2023-05-23T14:37:01.353Z,25.03
2023-05-23T14:39:29.274Z,24.96
2023-05-23T14:41:56.452Z,24.89
2023-05-23T14:44:23.334Z,24.84
2023-05-23T14:46:50.473Z,24.78
2023-05-23T14:49:17.410Z,24.79
2023-05-23T14:51:49.055Z,24.88
2023-05-23T14:54:17.243Z,24.90
2023-05-23T14:56:43.900Z,24.86
2023-05-23T14:59:11.141Z,24.85
2023-05-23T15:01:40.905Z,24.84
2023-05-23T15:04:09.566Z,24.83
2023-05-23T15:06:38.667Z,24.79
2023-05-23T15:09:06.088Z,24.74
2023-05-23T15:11:35.050Z,24.76
2023-05-23T15:14:02.038Z,24.77
2023-05-23T15:16:32.725Z,24.67
2023-05-23T15:19:02.399Z,24.58
2023-05-23T15:21:29.217Z,24.60
2023-05-23T15:23:56.204Z,24.60
2023-05-23T15:26:23.923Z,24.48
2023-05-23T15:28:50.837Z,24.28
2023-05-23T15:31:17.678Z,24.12
2023-05-23T15:33:44.361Z,24.02
2023-05-23T15:36:13.176Z,23.96
2023-05-23T15:38:40.423Z,23.99
2023-05-23T15:41:07.179Z,24.00
2023-05-23T15:43:35.607Z,24.05
2023-05-23T15:46:02.786Z,24.02
2023-05-23T15:48:29.595Z,24.02
2023-05-23T15:50:56.265Z,24.07
2023-05-23T15:53:22.899Z,24.12
2023-05-23T15:55:49.516Z,24.13
2023-05-23T15:58:16.146Z,24.18
2023-05-23T16:00:42.975Z,24.26
2023-05-23T16:03:09.716Z,24.28
2023-05-23T16:05:36.448Z,24.28
2023-05-23T16:08:03.212Z,24.31
2023-05-23T16:10:29.938Z,24.24
2023-05-23T16:12:56.562Z,24.09
2023-05-23T16:15:23.181Z,23.97
2023-05-23T16:17:49.941Z,23.88
2023-05-23T16:20:19.156Z,23.80
2023-05-23T16:22:46.051Z,23.68
2023-05-23T16:25:12.856Z,23.58
2023-05-23T16:27:42.559Z,23.50
2023-05-23T16:30:10.153Z,23.48
2023-05-23T16:32:36.985Z,23.46
2023-05-23T16:35:04.100Z,23.39
2023-05-23T16:37:30.836Z,23.33
2023-05-23T16:39:57.502Z,23.18
2023-05-23T16:42:24.297Z,23.12
2023-05-23T16:44:51.154Z,23.17
2023-05-23T16:47:17.880Z,23.20
2023-05-23T16:49:44.868Z,23.24
2023-05-23T16:52:11.661Z,23.27
2023-05-23T16:54:38.630Z,23.31
2023-05-23T16:57:06.162Z,23.32
2023-05-23T16:59:33.115Z,23.33
2023-05-23T17:02:00.228Z,23.33
2023-05-23T17:04:26.883Z,23.34
2023-05-23T17:06:53.685Z,23.34
2023-05-23T17:09:22.225Z,23.33
2023-05-23T17:11:50.122Z,23.30
2023-05-23T17:14:17.514Z,23.27
2023-05-23T17:16:44.217Z,23.25
2023-05-23T17:19:11.010Z,23.21
2023-05-23T17:21:37.835Z,23.17
2023-05-23T17:24:04.589Z,23.15
2023-05-23T17:26:31.221Z,23.12
2023-05-23T17:28:57.783Z,23.08
2023-05-23T17:31:24.600Z,23.00
2023-05-23T17:33:51.229Z,22.92
2023-05-23T17:36:17.840Z,22.84
2023-05-23T17:38:44.573Z,22.76
2023-05-23T17:41:11.270Z,22.67
2023-05-23T17:43:37.871Z,22.59
2023-05-23T17:46:04.535Z,22.50
2023-05-23T17:48:45.526Z,22.40
2023-05-23T17:51:13.821Z,22.28
2023-05-23T17:53:41.624Z,22.17
2023-05-23T17:56:09.301Z,22.04
2023-05-23T17:58:41.690Z,21.91
2023-05-23T18:01:11.698Z,21.78
2023-05-23T18:03:38.934Z,21.65
2023-05-23T18:06:05.783Z,21.54
2023-05-23T18:08:32.464Z,21.41
2023-05-23T18:10:59.090Z,21.30
2023-05-23T18:13:25.984Z,21.20
2023-05-23T18:15:52.944Z,21.08
2023-05-23T18:18:19.764Z,20.95
2023-05-23T18:20:47.302Z,20.82
2023-05-23T18:23:13.925Z,20.71
2023-05-23T18:25:40.555Z,20.59
2023-05-23T18:28:07.205Z,20.47
2023-05-23T18:30:33.905Z,20.38
2023-05-23T18:33:00.824Z,20.33
2023-05-23T18:35:27.870Z,20.25
2023-05-23T18:37:54.692Z,20.15
2023-05-23T18:40:23.734Z,20.06
2023-05-23T18:42:50.759Z,19.98
2023-05-23T18:45:17.633Z,19.90
2023-05-23T18:47:44.846Z,19.84
2023-05-23T18:50:13.307Z,19.77
2023-05-23T18:52:40.617Z,19.69
2023-05-23T18:55:07.748Z,19.62
2023-05-23T18:57:34.587Z,19.53
2023-05-23T19:00:03.237Z,19.45
2023-05-23T19:02:29.975Z,19.37
2023-05-23T19:04:56.718Z,19.28
2023-05-23T19:07:23.407Z,19.22
2023-05-23T19:09:50.038Z,19.14
2023-05-23T19:12:16.791Z,19.08
2023-05-23T19:14:43.419Z,19.01
2023-05-23T19:17:10.511Z,18.94
2023-05-23T19:19:37.504Z,18.87
2023-05-23T19:22:04.650Z,18.81
2023-05-23T19:24:32.163Z,18.75
2023-05-23T19:26:58.918Z,18.70
2023-05-23T19:29:26.721Z,18.65
2023-05-23T19:31:55.282Z,18.60
2023-05-23T19:34:22.551Z,18.55
2023-05-23T19:36:49.788Z,18.49
2023-05-23T19:39:16.445Z,18.44
2023-05-23T19:41:43.034Z,18.40
2023-05-23T19:44:09.801Z,18.35
2023-05-23T19:46:36.435Z,18.31
2023-05-23T19:49:03.112Z,18.24
2023-05-23T19:51:29.784Z,18.18
2023-05-23T19:53:56.431Z,18.12
2023-05-23T19:56:23.754Z,18.06
2023-05-23T19:58:50.425Z,18.01
2023-05-23T20:01:17.170Z,17.96
2023-05-23T20:03:43.880Z,17.92
2023-05-23T20:06:10.720Z,17.87
2023-05-23T20:08:37.320Z,17.85
2023-05-23T20:11:04.006Z,17.82
2023-05-23T20:13:30.592Z,17.77
2023-05-23T20:15:57.340Z,17.73
2023-05-23T20:18:24.012Z,17.69
2023-05-23T20:20:50.629Z,17.65
2023-05-23T20:23:17.529Z,17.59
2023-05-23T20:25:44.152Z,17.54
2023-05-23T20:28:11.151Z,17.48
2023-05-23T20:30:37.955Z,17.41
2023-05-23T20:33:04.888Z,17.37
2023-05-23T20:35:31.814Z,17.33
2023-05-23T20:37:59.355Z,17.28
2023-05-23T20:40:38.924Z,17.23
2023-05-23T20:43:06.656Z,17.18
2023-05-23T20:45:33.866Z,17.13
2023-05-23T20:48:00.981Z,17.09
2023-05-23T20:50:28.729Z,17.04
2023-05-23T20:52:55.565Z,17.01
2023-05-23T20:55:22.387Z,16.96
2023-05-23T20:57:49.291Z,16.91
2023-05-23T21:00:16.497Z,16.87
2023-05-23T21:02:43.839Z,16.83
2023-05-23T21:05:12.345Z,16.78
2023-05-23T21:07:41.689Z,16.75
2023-05-23T21:10:08.954Z,16.71
2023-05-23T21:12:36.107Z,16.67
2023-05-23T21:15:03.461Z,16.60
2023-05-23T21:17:30.342Z,16.54
2023-05-23T21:19:57.026Z,16.48
2023-05-23T21:22:23.761Z,16.42
2023-05-23T21:24:50.563Z,16.36
2023-05-23T21:27:17.588Z,16.30
2023-05-23T21:29:45.039Z,16.23
2023-05-23T21:32:11.709Z,16.16
2023-05-23T21:34:38.577Z,16.11
2023-05-23T21:37:05.301Z,16.09
2023-05-23T21:39:47.066Z,16.07
2023-05-23T21:42:18.518Z,16.04
2023-05-23T21:44:45.947Z,16.01
2023-05-23T21:47:13.192Z,15.97
2023-05-23T21:49:40.614Z,15.94
2023-05-23T21:52:07.498Z,15.92
2023-05-23T21:54:34.289Z,15.89
2023-05-23T21:57:00.995Z,15.86
2023-05-23T21:59:27.682Z,15.85
2023-05-23T22:01:54.358Z,15.83
2023-05-23T22:04:21.072Z,15.83
2023-05-23T22:06:47.727Z,15.83
2023-05-23T22:09:15.429Z,15.82
2023-05-23T22:11:42.429Z,15.81
2023-05-23T22:14:10.170Z,15.81
2023-05-23T22:16:39.734Z,15.80
2023-05-23T22:19:08.254Z,15.79
2023-05-23T22:21:35.044Z,15.79
2023-05-23T22:24:01.772Z,15.78
2023-05-23T22:26:28.956Z,15.79
2023-05-23T22:28:55.921Z,15.80
2023-05-23T22:31:24.172Z,15.81
2023-05-23T22:33:51.253Z,15.82
2023-05-23T22:36:18.314Z,15.84
2023-05-23T22:38:45.720Z,15.86
2023-05-23T22:41:12.816Z,15.87
2023-05-23T22:43:39.772Z,15.88
2023-05-23T22:46:07.071Z,15.89
2023-05-23T22:48:34.285Z,15.89
2023-05-23T22:51:22.451Z,15.88
2023-05-23T22:53:49.171Z,15.90
2023-05-23T22:56:15.991Z,15.92
2023-05-23T22:58:43.056Z,15.92
2023-05-23T23:01:09.739Z,15.93
2023-05-23T23:03:36.393Z,15.94
2023-05-23T23:06:06.340Z,15.95
2023-05-23T23:08:33.408Z,15.97
2023-05-23T23:11:00.036Z,15.98
2023-05-23T23:13:26.827Z,15.99
2023-05-23T23:15:54.423Z,16.01
2023-05-23T23:18:21.118Z,16.01
2023-05-23T23:20:48.410Z,16.03
2023-05-23T23:23:15.174Z,16.03
2023-05-23T23:25:41.820Z,16.02
2023-05-23T23:28:08.466Z,16.01
2023-05-23T23:30:35.028Z,16.00
2023-05-23T23:33:01.703Z,15.98
2023-05-23T23:35:28.467Z,15.96
2023-05-23T23:37:55.011Z,15.94
2023-05-23T23:40:21.555Z,15.93
2023-05-23T23:42:48.114Z,15.91
2023-05-23T23:45:14.747Z,15.90
2023-05-23T23:47:42.551Z,15.89
2023-05-23T23:50:09.385Z,15.87
2023-05-23T23:52:38.863Z,15.84
2023-05-23T23:55:06.293Z,15.82
2023-05-23T23:57:32.884Z,15.80
2023-05-23T23:59:59.655Z,15.78
